sensor_id;sensor_type;location;lat;lon;timestamp;P1;durP1;ratioP1;P2;durP2;ratioP2
21181;SDS011;10749;46.296;7.524;2023-08-07T00:02:22;10.47;;;2.33;;
21181;SDS011;10749;46.296;7.524;2023-08-07T00:04:48;8.67;;;1.87;;
21181;SDS011;10749;46.296;7.524;2023-08-07T00:07:13;9.17;;;1.97;;
21181;SDS011;10749;46.296;7.524;2023-08-07T00:09:39;6.63;;;1.50;;
21181;SDS011;10749;46.296;7.524;2023-08-07T00:12:04;5.90;;;1.20;;
21181;SDS011;10749;46.296;7.524;2023-08-07T00:14:29;4.47;;;1.10;;
21181;SDS011;10749;46.296;7.524;2023-08-07T00:16:55;5.47;;;1.27;;
21181;SDS011;10749;46.296;7.524;2023-08-07T00:19:20;4.53;;;1.17;;
21181;SDS011;10749;46.296;7.524;2023-08-07T00:21:45;6.83;;;1.40;;
21181;SDS011;10749;46.296;7.524;2023-08-07T00:24:11;5.43;;;1.07;;
21181;SDS011;10749;46.296;7.524;2023-08-07T00:26:36;3.07;;;0.93;;
21181;SDS011;10749;46.296;7.524;2023-08-07T00:29:01;4.17;;;1.03;;
21181;SDS011;10749;46.296;7.524;2023-08-07T00:31:26;4.10;;;0.90;;
21181;SDS011;10749;46.296;7.524;2023-08-07T00:33:56;2.57;;;0.80;;
21181;SDS011;10749;46.296;7.524;2023-08-07T00:36:21;2.67;;;1.00;;
21181;SDS011;10749;46.296;7.524;2023-08-07T00:38:46;2.93;;;0.97;;
21181;SDS011;10749;46.296;7.524;2023-08-07T00:41:12;3.67;;;0.97;;
21181;SDS011;10749;46.296;7.524;2023-08-07T00:43:37;4.33;;;1.17;;
21181;SDS011;10749;46.296;7.524;2023-08-07T00:46:02;3.60;;;0.83;;
21181;SDS011;10749;46.296;7.524;2023-08-07T00:48:28;2.37;;;0.80;;
21181;SDS011;10749;46.296;7.524;2023-08-07T00:50:54;6.37;;;1.03;;
21181;SDS011;10749;46.296;7.524;2023-08-07T00:53:21;8.90;;;1.30;;
21181;SDS011;10749;46.296;7.524;2023-08-07T00:55:47;5.63;;;1.10;;
21181;SDS011;10749;46.296;7.524;2023-08-07T00:58:13;6.63;;;1.20;;
21181;SDS011;10749;46.296;7.524;2023-08-07T01:00:38;5.77;;;1.23;;
21181;SDS011;10749;46.296;7.524;2023-08-07T01:03:06;4.07;;;1.30;;
21181;SDS011;10749;46.296;7.524;2023-08-07T01:05:32;3.60;;;0.93;;
21181;SDS011;10749;46.296;7.524;2023-08-07T01:07:57;3.83;;;0.77;;
21181;SDS011;10749;46.296;7.524;2023-08-07T01:10:32;3.07;;;0.77;;
21181;SDS011;10749;46.296;7.524;2023-08-07T01:13:28;2.67;;;0.70;;
21181;SDS011;10749;46.296;7.524;2023-08-07T01:15:59;2.80;;;0.60;;
21181;SDS011;10749;46.296;7.524;2023-08-07T01:18:28;2.83;;;0.63;;
21181;SDS011;10749;46.296;7.524;2023-08-07T01:20:55;3.10;;;0.80;;
21181;SDS011;10749;46.296;7.524;2023-08-07T01:23:21;4.27;;;0.87;;
21181;SDS011;10749;46.296;7.524;2023-08-07T01:25:46;4.73;;;1.20;;
21181;SDS011;10749;46.296;7.524;2023-08-07T01:30:40;7.13;;;1.30;;
21181;SDS011;10749;46.296;7.524;2023-08-07T01:33:19;2.63;;;0.90;;
21181;SDS011;10749;46.296;7.524;2023-08-07T01:35:51;3.00;;;0.80;;
21181;SDS011;10749;46.296;7.524;2023-08-07T01:38:18;2.27;;;0.60;;
21181;SDS011;10749;46.296;7.524;2023-08-07T01:40:49;2.33;;;0.67;;
21181;SDS011;10749;46.296;7.524;2023-08-07T01:43:15;4.30;;;1.10;;
21181;SDS011;10749;46.296;7.524;2023-08-07T01:45:41;3.50;;;0.90;;
21181;SDS011;10749;46.296;7.524;2023-08-07T01:48:07;4.00;;;1.30;;
21181;SDS011;10749;46.296;7.524;2023-08-07T01:50:32;2.57;;;0.77;;
21181;SDS011;10749;46.296;7.524;2023-08-07T01:52:57;2.33;;;0.70;;
21181;SDS011;10749;46.296;7.524;2023-08-07T01:55:23;4.90;;;0.80;;
21181;SDS011;10749;46.296;7.524;2023-08-07T01:57:48;1.60;;;0.57;;
21181;SDS011;10749;46.296;7.524;2023-08-07T02:00:14;1.90;;;0.53;;
21181;SDS011;10749;46.296;7.524;2023-08-07T02:02:39;2.17;;;0.60;;
21181;SDS011;10749;46.296;7.524;2023-08-07T02:05:05;2.93;;;0.60;;
21181;SDS011;10749;46.296;7.524;2023-08-07T02:07:30;3.43;;;0.57;;
21181;SDS011;10749;46.296;7.524;2023-08-07T02:09:57;2.60;;;0.60;;
21181;SDS011;10749;46.296;7.524;2023-08-07T02:12:22;1.83;;;0.60;;
21181;SDS011;10749;46.296;7.524;2023-08-07T02:14:47;2.40;;;0.77;;
21181;SDS011;10749;46.296;7.524;2023-08-07T02:17:13;1.47;;;0.57;;
21181;SDS011;10749;46.296;7.524;2023-08-07T02:19:38;3.93;;;0.70;;
21181;SDS011;10749;46.296;7.524;2023-08-07T02:22:03;3.67;;;0.73;;
21181;SDS011;10749;46.296;7.524;2023-08-07T02:24:29;3.00;;;1.10;;
21181;SDS011;10749;46.296;7.524;2023-08-07T02:26:54;5.10;;;1.20;;
21181;SDS011;10749;46.296;7.524;2023-08-07T02:29:19;4.63;;;1.27;;
21181;SDS011;10749;46.296;7.524;2023-08-07T02:31:45;6.73;;;1.20;;
21181;SDS011;10749;46.296;7.524;2023-08-07T02:34:10;6.13;;;1.20;;
21181;SDS011;10749;46.296;7.524;2023-08-07T02:36:35;3.93;;;1.20;;
21181;SDS011;10749;46.296;7.524;2023-08-07T02:39:00;3.03;;;0.87;;
21181;SDS011;10749;46.296;7.524;2023-08-07T02:41:26;2.60;;;0.80;;
21181;SDS011;10749;46.296;7.524;2023-08-07T02:43:51;3.13;;;0.60;;
21181;SDS011;10749;46.296;7.524;2023-08-07T02:46:16;0.90;;;0.50;;
21181;SDS011;10749;46.296;7.524;2023-08-07T02:48:43;1.97;;;0.60;;
21181;SDS011;10749;46.296;7.524;2023-08-07T02:51:09;1.00;;;0.60;;
21181;SDS011;10749;46.296;7.524;2023-08-07T02:53:34;0.50;;;0.40;;
21181;SDS011;10749;46.296;7.524;2023-08-07T02:55:59;0.80;;;0.53;;
21181;SDS011;10749;46.296;7.524;2023-08-07T02:58:25;2.67;;;0.80;;
21181;SDS011;10749;46.296;7.524;2023-08-07T03:00:50;3.97;;;0.90;;
21181;SDS011;10749;46.296;7.524;2023-08-07T03:03:15;2.70;;;0.97;;
21181;SDS011;10749;46.296;7.524;2023-08-07T03:05:47;4.63;;;1.03;;
21181;SDS011;10749;46.296;7.524;2023-08-07T03:08:16;4.53;;;1.20;;
21181;SDS011;10749;46.296;7.524;2023-08-07T03:10:41;4.47;;;1.20;;
21181;SDS011;10749;46.296;7.524;2023-08-07T03:13:06;4.33;;;1.00;;
21181;SDS011;10749;46.296;7.524;2023-08-07T03:15:32;7.13;;;1.30;;
21181;SDS011;10749;46.296;7.524;2023-08-07T03:17:57;4.57;;;1.50;;
21181;SDS011;10749;46.296;7.524;2023-08-07T03:20:23;5.07;;;1.20;;
21181;SDS011;10749;46.296;7.524;2023-08-07T03:22:48;4.73;;;1.07;;
21181;SDS011;10749;46.296;7.524;2023-08-07T03:25:13;3.97;;;1.30;;
21181;SDS011;10749;46.296;7.524;2023-08-07T03:27:39;4.90;;;1.30;;
21181;SDS011;10749;46.296;7.524;2023-08-07T03:30:04;6.77;;;1.53;;
21181;SDS011;10749;46.296;7.524;2023-08-07T03:32:30;5.80;;;1.43;;
21181;SDS011;10749;46.296;7.524;2023-08-07T03:34:55;5.97;;;1.70;;
21181;SDS011;10749;46.296;7.524;2023-08-07T03:37:20;4.20;;;1.50;;
21181;SDS011;10749;46.296;7.524;2023-08-07T03:39:46;5.70;;;1.60;;
21181;SDS011;10749;46.296;7.524;2023-08-07T03:42:13;6.07;;;1.17;;
21181;SDS011;10749;46.296;7.524;2023-08-07T03:44:39;4.87;;;1.40;;
21181;SDS011;10749;46.296;7.524;2023-08-07T03:47:05;3.63;;;1.30;;
21181;SDS011;10749;46.296;7.524;2023-08-07T03:49:30;5.37;;;1.40;;
21181;SDS011;10749;46.296;7.524;2023-08-07T03:51:55;5.57;;;1.40;;
21181;SDS011;10749;46.296;7.524;2023-08-07T03:54:21;3.30;;;1.20;;
21181;SDS011;10749;46.296;7.524;2023-08-07T03:56:46;5.27;;;1.60;;
21181;SDS011;10749;46.296;7.524;2023-08-07T03:59:13;4.53;;;1.27;;
21181;SDS011;10749;46.296;7.524;2023-08-07T04:01:38;3.87;;;1.20;;
21181;SDS011;10749;46.296;7.524;2023-08-07T04:04:03;4.33;;;1.20;;
21181;SDS011;10749;46.296;7.524;2023-08-07T04:06:28;4.10;;;1.10;;
21181;SDS011;10749;46.296;7.524;2023-08-07T04:08:54;2.43;;;1.00;;
21181;SDS011;10749;46.296;7.524;2023-08-07T04:11:19;2.97;;;1.10;;
21181;SDS011;10749;46.296;7.524;2023-08-07T04:13:44;1.67;;;0.70;;
21181;SDS011;10749;46.296;7.524;2023-08-07T04:16:10;2.17;;;0.87;;
21181;SDS011;10749;46.296;7.524;2023-08-07T04:18:35;3.30;;;1.10;;
21181;SDS011;10749;46.296;7.524;2023-08-07T04:21:00;2.40;;;1.00;;
21181;SDS011;10749;46.296;7.524;2023-08-07T04:23:26;3.93;;;1.00;;
21181;SDS011;10749;46.296;7.524;2023-08-07T04:25:51;2.23;;;0.90;;
21181;SDS011;10749;46.296;7.524;2023-08-07T04:28:18;2.20;;;1.13;;
21181;SDS011;10749;46.296;7.524;2023-08-07T04:30:44;2.47;;;1.20;;
21181;SDS011;10749;46.296;7.524;2023-08-07T04:33:13;5.37;;;1.30;;
21181;SDS011;10749;46.296;7.524;2023-08-07T04:35:39;9.27;;;2.13;;
21181;SDS011;10749;46.296;7.524;2023-08-07T04:38:04;6.87;;;1.43;;
21181;SDS011;10749;46.296;7.524;2023-08-07T04:40:30;7.87;;;1.87;;
21181;SDS011;10749;46.296;7.524;2023-08-07T04:42:56;9.10;;;1.87;;
21181;SDS011;10749;46.296;7.524;2023-08-07T04:45:21;5.67;;;1.63;;
21181;SDS011;10749;46.296;7.524;2023-08-07T04:47:46;5.37;;;1.23;;
21181;SDS011;10749;46.296;7.524;2023-08-07T04:50:12;6.70;;;2.13;;
21181;SDS011;10749;46.296;7.524;2023-08-07T04:52:37;7.50;;;1.63;;
21181;SDS011;10749;46.296;7.524;2023-08-07T04:55:03;6.10;;;1.40;;
21181;SDS011;10749;46.296;7.524;2023-08-07T04:57:29;6.73;;;1.57;;
21181;SDS011;10749;46.296;7.524;2023-08-07T04:59:55;6.17;;;1.73;;
21181;SDS011;10749;46.296;7.524;2023-08-07T05:02:20;8.37;;;1.70;;
21181;SDS011;10749;46.296;7.524;2023-08-07T05:04:45;6.77;;;1.90;;
21181;SDS011;10749;46.296;7.524;2023-08-07T05:07:11;7.17;;;1.60;;
21181;SDS011;10749;46.296;7.524;2023-08-07T05:09:37;10.00;;;2.07;;
21181;SDS011;10749;46.296;7.524;2023-08-07T05:12:03;5.93;;;1.30;;
21181;SDS011;10749;46.296;7.524;2023-08-07T05:14:29;5.77;;;1.23;;
21181;SDS011;10749;46.296;7.524;2023-08-07T05:16:54;7.00;;;1.70;;
21181;SDS011;10749;46.296;7.524;2023-08-07T05:19:20;7.53;;;1.47;;
21181;SDS011;10749;46.296;7.524;2023-08-07T05:21:45;2.73;;;1.00;;
21181;SDS011;10749;46.296;7.524;2023-08-07T05:24:14;3.33;;;1.07;;
21181;SDS011;10749;46.296;7.524;2023-08-07T05:26:40;2.40;;;0.80;;
21181;SDS011;10749;46.296;7.524;2023-08-07T05:29:05;2.60;;;1.10;;
21181;SDS011;10749;46.296;7.524;2023-08-07T05:31:31;1.77;;;0.90;;
21181;SDS011;10749;46.296;7.524;2023-08-07T05:33:57;3.23;;;1.00;;
21181;SDS011;10749;46.296;7.524;2023-08-07T05:36:22;5.00;;;1.40;;
21181;SDS011;10749;46.296;7.524;2023-08-07T05:38:47;7.27;;;1.13;;
21181;SDS011;10749;46.296;7.524;2023-08-07T05:41:13;4.60;;;1.47;;
21181;SDS011;10749;46.296;7.524;2023-08-07T05:43:38;3.73;;;1.10;;
21181;SDS011;10749;46.296;7.524;2023-08-07T05:46:03;4.70;;;1.23;;
21181;SDS011;10749;46.296;7.524;2023-08-07T05:48:29;6.67;;;1.50;;
21181;SDS011;10749;46.296;7.524;2023-08-07T05:50:54;3.33;;;1.10;;
21181;SDS011;10749;46.296;7.524;2023-08-07T05:53:20;2.60;;;0.80;;
21181;SDS011;10749;46.296;7.524;2023-08-07T05:55:45;3.37;;;1.00;;
21181;SDS011;10749;46.296;7.524;2023-08-07T05:58:10;5.23;;;1.30;;
21181;SDS011;10749;46.296;7.524;2023-08-07T06:00:35;7.67;;;1.67;;
21181;SDS011;10749;46.296;7.524;2023-08-07T06:03:01;8.53;;;1.67;;
21181;SDS011;10749;46.296;7.524;2023-08-07T06:05:26;7.63;;;1.40;;
21181;SDS011;10749;46.296;7.524;2023-08-07T06:07:51;6.37;;;1.63;;
21181;SDS011;10749;46.296;7.524;2023-08-07T06:10:17;5.97;;;1.20;;
21181;SDS011;10749;46.296;7.524;2023-08-07T06:12:42;3.97;;;1.10;;
21181;SDS011;10749;46.296;7.524;2023-08-07T06:15:07;3.67;;;0.93;;
21181;SDS011;10749;46.296;7.524;2023-08-07T06:17:34;6.37;;;1.07;;
21181;SDS011;10749;46.296;7.524;2023-08-07T06:19:59;3.20;;;0.90;;
21181;SDS011;10749;46.296;7.524;2023-08-07T06:22:24;4.83;;;1.00;;
21181;SDS011;10749;46.296;7.524;2023-08-07T06:24:50;4.50;;;1.10;;
21181;SDS011;10749;46.296;7.524;2023-08-07T06:27:15;4.40;;;1.20;;
21181;SDS011;10749;46.296;7.524;2023-08-07T06:29:40;4.33;;;1.10;;
21181;SDS011;10749;46.296;7.524;2023-08-07T06:32:06;3.87;;;1.17;;
21181;SDS011;10749;46.296;7.524;2023-08-07T06:34:31;5.73;;;1.17;;
21181;SDS011;10749;46.296;7.524;2023-08-07T06:36:57;3.17;;;1.00;;
21181;SDS011;10749;46.296;7.524;2023-08-07T06:39:22;4.60;;;1.00;;
21181;SDS011;10749;46.296;7.524;2023-08-07T06:41:47;3.57;;;1.00;;
21181;SDS011;10749;46.296;7.524;2023-08-07T06:44:13;3.67;;;0.80;;
21181;SDS011;10749;46.296;7.524;2023-08-07T06:46:38;3.50;;;1.17;;
21181;SDS011;10749;46.296;7.524;2023-08-07T06:49:03;6.07;;;1.40;;
21181;SDS011;10749;46.296;7.524;2023-08-07T06:51:28;6.83;;;1.60;;
21181;SDS011;10749;46.296;7.524;2023-08-07T06:53:54;7.07;;;1.20;;
21181;SDS011;10749;46.296;7.524;2023-08-07T06:56:19;6.03;;;1.30;;
21181;SDS011;10749;46.296;7.524;2023-08-07T06:58:44;5.30;;;1.60;;
21181;SDS011;10749;46.296;7.524;2023-08-07T07:01:10;5.07;;;1.20;;
21181;SDS011;10749;46.296;7.524;2023-08-07T07:03:35;7.13;;;1.53;;
21181;SDS011;10749;46.296;7.524;2023-08-07T07:06:00;7.67;;;2.00;;
21181;SDS011;10749;46.296;7.524;2023-08-07T07:08:26;5.97;;;1.60;;
21181;SDS011;10749;46.296;7.524;2023-08-07T07:10:51;5.43;;;1.53;;
21181;SDS011;10749;46.296;7.524;2023-08-07T07:13:16;3.77;;;1.03;;
21181;SDS011;10749;46.296;7.524;2023-08-07T07:15:42;3.30;;;1.00;;
21181;SDS011;10749;46.296;7.524;2023-08-07T07:18:07;4.30;;;1.10;;
21181;SDS011;10749;46.296;7.524;2023-08-07T07:20:32;4.10;;;1.17;;
21181;SDS011;10749;46.296;7.524;2023-08-07T07:22:58;3.80;;;1.40;;
21181;SDS011;10749;46.296;7.524;2023-08-07T07:25:23;5.00;;;1.00;;
21181;SDS011;10749;46.296;7.524;2023-08-07T07:27:48;2.70;;;0.97;;
21181;SDS011;10749;46.296;7.524;2023-08-07T07:30:13;2.87;;;1.10;;
21181;SDS011;10749;46.296;7.524;2023-08-07T07:32:39;1.93;;;0.90;;
21181;SDS011;10749;46.296;7.524;2023-08-07T07:35:04;2.00;;;1.03;;
21181;SDS011;10749;46.296;7.524;2023-08-07T07:37:30;2.53;;;0.90;;
21181;SDS011;10749;46.296;7.524;2023-08-07T07:39:56;3.73;;;0.80;;
21181;SDS011;10749;46.296;7.524;2023-08-07T07:42:21;2.60;;;1.10;;
21181;SDS011;10749;46.296;7.524;2023-08-07T07:44:46;1.27;;;0.57;;
21181;SDS011;10749;46.296;7.524;2023-08-07T07:47:12;0.60;;;0.40;;
21181;SDS011;10749;46.296;7.524;2023-08-07T07:49:38;0.60;;;0.43;;
21181;SDS011;10749;46.296;7.524;2023-08-07T07:52:03;0.90;;;0.30;;
21181;SDS011;10749;46.296;7.524;2023-08-07T07:54:29;1.60;;;0.60;;
21181;SDS011;10749;46.296;7.524;2023-08-07T07:56:54;1.00;;;0.60;;
21181;SDS011;10749;46.296;7.524;2023-08-07T07:59:20;1.70;;;0.80;;
21181;SDS011;10749;46.296;7.524;2023-08-07T08:01:45;1.03;;;0.70;;
21181;SDS011;10749;46.296;7.524;2023-08-07T08:04:10;0.83;;;0.50;;
21181;SDS011;10749;46.296;7.524;2023-08-07T08:06:36;1.80;;;1.00;;
21181;SDS011;10749;46.296;7.524;2023-08-07T08:09:01;1.70;;;0.53;;
21181;SDS011;10749;46.296;7.524;2023-08-07T08:11:29;1.33;;;0.70;;
21181;SDS011;10749;46.296;7.524;2023-08-07T08:13:55;1.53;;;0.60;;
21181;SDS011;10749;46.296;7.524;2023-08-07T08:16:20;1.43;;;0.70;;
21181;SDS011;10749;46.296;7.524;2023-08-07T08:18:45;3.47;;;1.03;;
21181;SDS011;10749;46.296;7.524;2023-08-07T08:21:11;1.37;;;0.70;;
21181;SDS011;10749;46.296;7.524;2023-08-07T08:23:36;1.90;;;0.80;;
21181;SDS011;10749;46.296;7.524;2023-08-07T08:26:01;3.28;;;0.88;;
21181;SDS011;10749;46.296;7.524;2023-08-07T08:28:27;2.13;;;0.73;;
21181;SDS011;10749;46.296;7.524;2023-08-07T08:30:52;2.07;;;0.87;;
21181;SDS011;10749;46.296;7.524;2023-08-07T08:33:17;1.47;;;0.60;;
21181;SDS011;10749;46.296;7.524;2023-08-07T08:35:43;1.57;;;0.60;;
21181;SDS011;10749;46.296;7.524;2023-08-07T08:38:08;1.30;;;0.60;;
21181;SDS011;10749;46.296;7.524;2023-08-07T08:40:34;1.33;;;0.50;;
21181;SDS011;10749;46.296;7.524;2023-08-07T08:43:02;1.00;;;0.40;;
21181;SDS011;10749;46.296;7.524;2023-08-07T08:45:30;1.60;;;0.70;;
21181;SDS011;10749;46.296;7.524;2023-08-07T08:48:00;1.70;;;0.77;;
21181;SDS011;10749;46.296;7.524;2023-08-07T08:50:27;1.73;;;0.70;;
21181;SDS011;10749;46.296;7.524;2023-08-07T08:52:53;2.47;;;0.70;;
21181;SDS011;10749;46.296;7.524;2023-08-07T08:55:20;1.57;;;0.80;;
21181;SDS011;10749;46.296;7.524;2023-08-07T08:57:46;2.45;;;1.00;;
21181;SDS011;10749;46.296;7.524;2023-08-07T09:00:13;1.67;;;0.50;;
21181;SDS011;10749;46.296;7.524;2023-08-07T09:03:16;1.50;;;0.50;;
21181;SDS011;10749;46.296;7.524;2023-08-07T09:05:35;1.25;;;0.55;;
21181;SDS011;10749;46.296;7.524;2023-08-07T09:08:07;0.90;;;0.45;;
21181;SDS011;10749;46.296;7.524;2023-08-07T09:10:34;2.05;;;0.60;;
21181;SDS011;10749;46.296;7.524;2023-08-07T09:13:01;2.15;;;0.50;;
21181;SDS011;10749;46.296;7.524;2023-08-07T09:15:31;1.17;;;0.60;;
21181;SDS011;10749;46.296;7.524;2023-08-07T09:17:58;2.37;;;0.50;;
21181;SDS011;10749;46.296;7.524;2023-08-07T09:20:25;1.95;;;0.60;;
21181;SDS011;10749;46.296;7.524;2023-08-07T09:22:50;1.00;;;0.50;;
21181;SDS011;10749;46.296;7.524;2023-08-07T09:25:26;1.10;;;0.52;;
21181;SDS011;10749;46.296;7.524;2023-08-07T09:27:58;0.98;;;0.40;;
21181;SDS011;10749;46.296;7.524;2023-08-07T09:30:29;2.35;;;0.82;;
21181;SDS011;10749;46.296;7.524;2023-08-07T09:32:58;0.80;;;0.45;;
21181;SDS011;10749;46.296;7.524;2023-08-07T09:35:25;1.33;;;0.60;;
21181;SDS011;10749;46.296;7.524;2023-08-07T09:37:51;0.90;;;0.60;;
21181;SDS011;10749;46.296;7.524;2023-08-07T09:40:17;1.65;;;0.60;;
21181;SDS011;10749;46.296;7.524;2023-08-07T09:42:43;1.05;;;0.50;;
21181;SDS011;10749;46.296;7.524;2023-08-07T09:45:22;0.50;;;0.40;;
21181;SDS011;10749;46.296;7.524;2023-08-07T09:48:04;2.45;;;0.50;;
21181;SDS011;10749;46.296;7.524;2023-08-07T09:50:31;0.90;;;0.45;;
21181;SDS011;10749;46.296;7.524;2023-08-07T09:52:57;1.73;;;0.60;;
21181;SDS011;10749;46.296;7.524;2023-08-07T09:55:25;0.98;;;0.57;;
21181;SDS011;10749;46.296;7.524;2023-08-07T09:57:51;1.20;;;0.50;;
21181;SDS011;10749;46.296;7.524;2023-08-07T10:00:17;1.27;;;0.50;;
21181;SDS011;10749;46.296;7.524;2023-08-07T10:02:45;1.60;;;0.80;;
21181;SDS011;10749;46.296;7.524;2023-08-07T10:05:12;1.10;;;0.65;;
21181;SDS011;10749;46.296;7.524;2023-08-07T10:07:38;0.73;;;0.50;;
21181;SDS011;10749;46.296;7.524;2023-08-07T10:10:04;2.25;;;0.60;;
21181;SDS011;10749;46.296;7.524;2023-08-07T10:12:31;0.65;;;0.40;;
21181;SDS011;10749;46.296;7.524;2023-08-07T10:14:58;1.10;;;0.50;;
21181;SDS011;10749;46.296;7.524;2023-08-07T10:17:24;1.58;;;0.55;;
21181;SDS011;10749;46.296;7.524;2023-08-07T10:19:50;1.27;;;0.75;;
21181;SDS011;10749;46.296;7.524;2023-08-07T10:22:16;1.42;;;0.50;;
21181;SDS011;10749;46.296;7.524;2023-08-07T10:24:44;0.93;;;0.50;;
21181;SDS011;10749;46.296;7.524;2023-08-07T10:27:15;0.70;;;0.50;;
21181;SDS011;10749;46.296;7.524;2023-08-07T10:29:43;1.77;;;0.55;;
21181;SDS011;10749;46.296;7.524;2023-08-07T10:32:11;1.10;;;0.70;;
21181;SDS011;10749;46.296;7.524;2023-08-07T10:34:38;1.00;;;0.45;;
21181;SDS011;10749;46.296;7.524;2023-08-07T10:37:06;0.70;;;0.60;;
21181;SDS011;10749;46.296;7.524;2023-08-07T10:39:32;1.85;;;0.60;;
21181;SDS011;10749;46.296;7.524;2023-08-07T10:41:57;2.35;;;0.50;;
21181;SDS011;10749;46.296;7.524;2023-08-07T10:44:23;0.70;;;0.50;;
21181;SDS011;10749;46.296;7.524;2023-08-07T10:46:52;0.55;;;0.40;;
21181;SDS011;10749;46.296;7.524;2023-08-07T10:49:32;0.80;;;0.50;;
21181;SDS011;10749;46.296;7.524;2023-08-07T10:52:02;1.00;;;0.60;;
21181;SDS011;10749;46.296;7.524;2023-08-07T10:54:36;0.57;;;0.40;;
21181;SDS011;10749;46.296;7.524;2023-08-07T10:57:12;0.85;;;0.40;;
21181;SDS011;10749;46.296;7.524;2023-08-07T10:59:43;0.85;;;0.50;;
21181;SDS011;10749;46.296;7.524;2023-08-07T11:02:22;0.85;;;0.50;;
21181;SDS011;10749;46.296;7.524;2023-08-07T11:04:51;0.50;;;0.40;;
21181;SDS011;10749;46.296;7.524;2023-08-07T11:07:26;1.80;;;0.50;;
21181;SDS011;10749;46.296;7.524;2023-08-07T11:09:53;1.25;;;0.32;;
21181;SDS011;10749;46.296;7.524;2023-08-07T11:12:19;1.08;;;0.57;;
21181;SDS011;10749;46.296;7.524;2023-08-07T11:14:45;0.60;;;0.50;;
21181;SDS011;10749;46.296;7.524;2023-08-07T11:17:11;0.47;;;0.40;;
21181;SDS011;10749;46.296;7.524;2023-08-07T11:19:37;0.70;;;0.40;;
21181;SDS011;10749;46.296;7.524;2023-08-07T11:22:03;0.47;;;0.40;;
21181;SDS011;10749;46.296;7.524;2023-08-07T11:24:30;0.95;;;0.50;;
21181;SDS011;10749;46.296;7.524;2023-08-07T11:26:55;0.63;;;0.30;;
21181;SDS011;10749;46.296;7.524;2023-08-07T11:29:22;0.77;;;0.38;;
21181;SDS011;10749;46.296;7.524;2023-08-07T11:31:50;0.70;;;0.40;;
21181;SDS011;10749;46.296;7.524;2023-08-07T11:34:18;1.00;;;0.50;;
21181;SDS011;10749;46.296;7.524;2023-08-07T11:36:44;0.77;;;0.35;;
21181;SDS011;10749;46.296;7.524;2023-08-07T11:39:11;0.60;;;0.40;;
21181;SDS011;10749;46.296;7.524;2023-08-07T11:41:37;0.60;;;0.40;;
21181;SDS011;10749;46.296;7.524;2023-08-07T11:44:02;0.70;;;0.30;;
21181;SDS011;10749;46.296;7.524;2023-08-07T11:46:28;0.70;;;0.40;;
21181;SDS011;10749;46.296;7.524;2023-08-07T11:48:54;1.48;;;0.50;;
21181;SDS011;10749;46.296;7.524;2023-08-07T11:51:21;0.52;;;0.50;;
21181;SDS011;10749;46.296;7.524;2023-08-07T11:53:47;0.82;;;0.35;;
21181;SDS011;10749;46.296;7.524;2023-08-07T11:56:13;0.82;;;0.40;;
21181;SDS011;10749;46.296;7.524;2023-08-07T11:58:43;0.55;;;0.32;;
21181;SDS011;10749;46.296;7.524;2023-08-07T12:01:23;0.40;;;0.30;;
21181;SDS011;10749;46.296;7.524;2023-08-07T12:03:55;0.50;;;0.32;;
21181;SDS011;10749;46.296;7.524;2023-08-07T12:06:30;0.40;;;0.30;;
21181;SDS011;10749;46.296;7.524;2023-08-07T12:08:55;0.68;;;0.40;;
21181;SDS011;10749;46.296;7.524;2023-08-07T12:11:21;0.88;;;0.40;;
21181;SDS011;10749;46.296;7.524;2023-08-07T12:13:47;0.47;;;0.30;;
21181;SDS011;10749;46.296;7.524;2023-08-07T12:16:13;0.73;;;0.40;;
21181;SDS011;10749;46.296;7.524;2023-08-07T12:18:49;1.23;;;0.50;;
21181;SDS011;10749;46.296;7.524;2023-08-07T12:21:16;0.50;;;0.40;;
21181;SDS011;10749;46.296;7.524;2023-08-07T12:23:45;1.63;;;0.30;;
21181;SDS011;10749;46.296;7.524;2023-08-07T12:26:14;0.95;;;0.50;;
21181;SDS011;10749;46.296;7.524;2023-08-07T12:28:40;0.70;;;0.50;;
21181;SDS011;10749;46.296;7.524;2023-08-07T12:31:05;1.00;;;0.57;;
21181;SDS011;10749;46.296;7.524;2023-08-07T12:33:31;0.70;;;0.40;;
21181;SDS011;10749;46.296;7.524;2023-08-07T12:35:57;0.47;;;0.30;;
21181;SDS011;10749;46.296;7.524;2023-08-07T12:38:23;0.90;;;0.47;;
21181;SDS011;10749;46.296;7.524;2023-08-07T12:40:49;1.38;;;0.40;;
21181;SDS011;10749;46.296;7.524;2023-08-07T12:43:14;1.45;;;0.30;;
21181;SDS011;10749;46.296;7.524;2023-08-07T12:45:39;0.70;;;0.60;;
21181;SDS011;10749;46.296;7.524;2023-08-07T12:48:05;0.50;;;0.40;;
21181;SDS011;10749;46.296;7.524;2023-08-07T12:50:30;0.43;;;0.30;;
21181;SDS011;10749;46.296;7.524;2023-08-07T12:52:56;0.60;;;0.40;;
21181;SDS011;10749;46.296;7.524;2023-08-07T12:55:22;0.82;;;0.40;;
21181;SDS011;10749;46.296;7.524;2023-08-07T12:57:47;0.75;;;0.30;;
21181;SDS011;10749;46.296;7.524;2023-08-07T13:00:14;0.70;;;0.32;;
21181;SDS011;10749;46.296;7.524;2023-08-07T13:02:41;0.77;;;0.50;;
21181;SDS011;10749;46.296;7.524;2023-08-07T13:05:07;0.43;;;0.30;;
21181;SDS011;10749;46.296;7.524;2023-08-07T13:07:37;2.42;;;0.50;;
21181;SDS011;10749;46.296;7.524;2023-08-07T13:10:07;0.85;;;0.40;;
21181;SDS011;10749;46.296;7.524;2023-08-07T13:12:37;0.40;;;0.22;;
21181;SDS011;10749;46.296;7.524;2023-08-07T13:15:04;0.40;;;0.30;;
21181;SDS011;10749;46.296;7.524;2023-08-07T13:17:31;0.60;;;0.40;;
21181;SDS011;10749;46.296;7.524;2023-08-07T13:19:57;0.50;;;0.30;;
21181;SDS011;10749;46.296;7.524;2023-08-07T13:22:24;0.57;;;0.30;;
21181;SDS011;10749;46.296;7.524;2023-08-07T13:24:49;0.80;;;0.40;;
21181;SDS011;10749;46.296;7.524;2023-08-07T13:27:14;0.93;;;0.50;;
21181;SDS011;10749;46.296;7.524;2023-08-07T13:29:40;11.88;;;5.72;;
21181;SDS011;10749;46.296;7.524;2023-08-07T13:32:05;1.55;;;0.98;;
21181;SDS011;10749;46.296;7.524;2023-08-07T13:34:37;10.48;;;5.72;;
21181;SDS011;10749;46.296;7.524;2023-08-07T13:37:03;4.40;;;2.53;;
21181;SDS011;10749;46.296;7.524;2023-08-07T13:39:30;9.52;;;5.25;;
21181;SDS011;10749;46.296;7.524;2023-08-07T13:41:55;5.43;;;3.28;;
21181;SDS011;10749;46.296;7.524;2023-08-07T13:44:21;7.22;;;4.32;;
21181;SDS011;10749;46.296;7.524;2023-08-07T13:46:47;2.63;;;1.70;;
21181;SDS011;10749;46.296;7.524;2023-08-07T13:49:12;13.30;;;6.32;;
21181;SDS011;10749;46.296;7.524;2023-08-07T13:51:38;4.15;;;2.88;;
21181;SDS011;10749;46.296;7.524;2023-08-07T13:54:03;1.35;;;0.77;;
21181;SDS011;10749;46.296;7.524;2023-08-07T13:56:29;0.70;;;0.40;;
21181;SDS011;10749;46.296;7.524;2023-08-07T13:58:54;0.65;;;0.50;;
21181;SDS011;10749;46.296;7.524;2023-08-07T14:01:20;0.77;;;0.35;;
21181;SDS011;10749;46.296;7.524;2023-08-07T14:03:45;0.55;;;0.40;;
21181;SDS011;10749;46.296;7.524;2023-08-07T14:06:11;0.50;;;0.40;;
21181;SDS011;10749;46.296;7.524;2023-08-07T14:08:36;0.50;;;0.30;;
21181;SDS011;10749;46.296;7.524;2023-08-07T14:11:01;0.95;;;0.50;;
21181;SDS011;10749;46.296;7.524;2023-08-07T14:13:27;0.50;;;0.40;;
21181;SDS011;10749;46.296;7.524;2023-08-07T14:15:53;0.50;;;0.30;;
21181;SDS011;10749;46.296;7.524;2023-08-07T14:18:18;0.70;;;0.40;;
21181;SDS011;10749;46.296;7.524;2023-08-07T14:20:43;0.70;;;0.40;;
21181;SDS011;10749;46.296;7.524;2023-08-07T14:23:08;2.10;;;0.50;;
21181;SDS011;10749;46.296;7.524;2023-08-07T14:25:34;0.60;;;0.45;;
21181;SDS011;10749;46.296;7.524;2023-08-07T14:27:59;1.20;;;0.47;;
21181;SDS011;10749;46.296;7.524;2023-08-07T14:30:25;0.98;;;0.40;;
21181;SDS011;10749;46.296;7.524;2023-08-07T14:32:50;0.80;;;0.60;;
21181;SDS011;10749;46.296;7.524;2023-08-07T14:35:15;1.13;;;0.40;;
21181;SDS011;10749;46.296;7.524;2023-08-07T14:37:41;0.85;;;0.38;;
21181;SDS011;10749;46.296;7.524;2023-08-07T14:40:06;0.80;;;0.40;;
21181;SDS011;10749;46.296;7.524;2023-08-07T14:42:32;0.55;;;0.40;;
21181;SDS011;10749;46.296;7.524;2023-08-07T14:44:58;0.68;;;0.50;;
21181;SDS011;10749;46.296;7.524;2023-08-07T14:47:24;0.80;;;0.50;;